createdAt,value
2023-02-27T00:02:17.957Z,95697.22
2023-02-27T00:04:45.665Z,95698.25
2023-02-27T00:07:13.464Z,95693.97
2023-02-27T00:09:42.386Z,95695.38
2023-02-27T00:12:11.945Z,95696.25
2023-02-27T00:14:39.782Z,95710.97
2023-02-27T00:17:07.886Z,95704.09
2023-02-27T00:19:35.481Z,95711.41
2023-02-27T00:22:03.419Z,95713.59
2023-02-27T00:24:31.044Z,95709.22
2023-02-27T00:27:00.136Z,95719.59
2023-02-27T00:29:27.832Z,95714.41
2023-02-27T00:31:55.776Z,95723.25
2023-02-27T00:34:25.606Z,95718.00
2023-02-27T00:36:53.933Z,95723.56
2023-02-27T00:39:21.523Z,95720.66
2023-02-27T00:41:49.105Z,95720.41
2023-02-27T00:44:18.575Z,95713.97
2023-02-27T00:46:46.830Z,95719.81
2023-02-27T00:49:14.425Z,95725.69
2023-02-27T00:51:42.052Z,95720.59
2023-02-27T00:54:10.022Z,95719.56
2023-02-27T00:56:37.898Z,95711.25
2023-02-27T00:59:05.616Z,95716.44
2023-02-27T01:01:35.333Z,95720.81
2023-02-27T01:04:03.391Z,95721.50
2023-02-27T01:06:31.361Z,95727.94
2023-02-27T01:08:59.561Z,95727.56
2023-02-27T01:11:27.502Z,95727.25
2023-02-27T01:13:55.654Z,95725.56
2023-02-27T01:16:23.691Z,95728.50
2023-02-27T01:18:54.802Z,95724.28
2023-02-27T01:21:24.448Z,95723.47
2023-02-27T01:23:52.564Z,95722.44
2023-02-27T01:26:20.632Z,95726.50
2023-02-27T01:28:48.498Z,95727.03
2023-02-27T01:31:16.370Z,95724.50
2023-02-27T01:33:44.365Z,95734.06
2023-02-27T01:36:13.290Z,95727.84
2023-02-27T01:38:41.420Z,95730.56
2023-02-27T01:41:09.020Z,95727.31
2023-02-27T01:43:55.464Z,95734.41
2023-02-27T01:46:23.257Z,95739.78
2023-02-27T01:48:55.958Z,95730.69
2023-02-27T01:51:25.200Z,95728.09
2023-02-27T01:53:54.866Z,95736.38
2023-02-27T01:56:25.863Z,95732.78
2023-02-27T01:58:57.103Z,95735.34
2023-02-27T02:01:27.189Z,95732.03
2023-02-27T02:04:01.262Z,95731.53
2023-02-27T02:06:36.714Z,95729.78
2023-02-27T02:09:08.545Z,95735.25
2023-02-27T02:11:36.494Z,95733.91
2023-02-27T02:14:04.923Z,95717.56
2023-02-27T02:16:46.121Z,95726.66
2023-02-27T02:19:45.458Z,95721.91
2023-02-27T02:22:56.973Z,95714.56
2023-02-27T02:25:55.240Z,95719.22
2023-02-27T02:28:46.341Z,95718.72
2023-02-27T02:31:40.691Z,95722.75
2023-02-27T02:34:45.624Z,95711.56
2023-02-27T02:37:42.575Z,95715.94
2023-02-27T02:40:22.841Z,95707.84
2023-02-27T02:42:58.326Z,95708.25
2023-02-27T02:45:32.192Z,95723.38
2023-02-27T02:48:10.499Z,95709.03
2023-02-27T02:50:45.696Z,95708.63
2023-02-27T02:53:22.142Z,95714.84
2023-02-27T02:55:57.119Z,95716.63
2023-02-27T02:58:30.850Z,95720.84
2023-02-27T03:01:04.997Z,95724.16
2023-02-27T03:03:36.082Z,95731.38
2023-02-27T03:06:07.590Z,95722.50
2023-02-27T03:08:40.445Z,95714.41
2023-02-27T03:11:10.936Z,95717.91
2023-02-27T03:13:45.128Z,95715.69
2023-02-27T03:16:18.558Z,95715.69
2023-02-27T03:18:51.430Z,95716.31
2023-02-27T03:21:25.577Z,95718.91
2023-02-27T03:23:57.239Z,95713.94
2023-02-27T03:26:34.123Z,95716.09
2023-02-27T03:29:04.935Z,95713.16
2023-02-27T03:31:39.446Z,95712.28
2023-02-27T03:34:14.580Z,95706.50
2023-02-27T03:36:48.909Z,95716.72
2023-02-27T03:39:25.981Z,95714.38
2023-02-27T03:42:01.962Z,95716.59
2023-02-27T03:44:57.160Z,95719.78
2023-02-27T03:47:25.383Z,95717.63
2023-02-27T03:49:54.544Z,95718.84
2023-02-27T03:52:24.103Z,95727.09
2023-02-27T03:54:59.831Z,95722.03
2023-02-27T03:57:29.047Z,95730.13
2023-02-27T03:59:57.976Z,95737.09
2023-02-27T04:02:26.807Z,95730.84
2023-02-27T04:04:55.187Z,95738.19
2023-02-27T04:07:59.114Z,95725.47
2023-02-27T04:10:39.533Z,95730.69
2023-02-27T04:13:37.614Z,95735.25
2023-02-27T04:16:30.570Z,95727.25
2023-02-27T04:19:13.870Z,95735.84
2023-02-27T04:21:49.952Z,95729.84
2023-02-27T04:24:37.151Z,95735.50
2023-02-27T04:27:16.924Z,95741.94
2023-02-27T04:29:55.253Z,95735.44
2023-02-27T04:32:31.324Z,95742.03
2023-02-27T04:35:03.104Z,95747.84
2023-02-27T04:37:37.045Z,95738.34
2023-02-27T04:40:09.439Z,95738.72
2023-02-27T04:42:43.175Z,95737.09
2023-02-27T04:45:16.044Z,95739.66
2023-02-27T04:47:51.006Z,95743.84
2023-02-27T04:50:23.331Z,95743.13
2023-02-27T04:52:56.746Z,95736.50
2023-02-27T04:55:28.172Z,95740.84
2023-02-27T04:58:00.664Z,95748.38
2023-02-27T05:00:32.797Z,95745.19
2023-02-27T05:03:06.899Z,95744.56
2023-02-27T05:05:36.421Z,95748.50
2023-02-27T05:08:10.250Z,95747.16
2023-02-27T05:10:43.941Z,95743.34
2023-02-27T05:13:15.899Z,95745.22
2023-02-27T05:15:49.544Z,95747.66
2023-02-27T05:18:20.694Z,95747.25
2023-02-27T05:21:02.486Z,95742.31
2023-02-27T05:23:40.568Z,95741.50
2023-02-27T05:26:17.826Z,95742.69
2023-02-27T05:28:52.698Z,95744.03
2023-02-27T05:31:27.750Z,95736.50
2023-02-27T05:34:00.887Z,95746.84
2023-02-27T05:36:34.776Z,95742.69
2023-02-27T05:39:05.774Z,95740.66
2023-02-27T05:41:36.717Z,95741.78
2023-02-27T05:44:07.383Z,95746.84
2023-02-27T05:46:40.363Z,95747.66
2023-02-27T05:49:12.732Z,95753.84
2023-02-27T05:51:45.010Z,95757.91
2023-02-27T05:54:17.531Z,95761.75
2023-02-27T05:56:50.318Z,95758.00
2023-02-27T05:59:23.156Z,95757.13
2023-02-27T06:01:52.911Z,95762.38
2023-02-27T06:04:20.895Z,95758.84
2023-02-27T06:06:49.788Z,95762.09
2023-02-27T06:09:17.535Z,95764.91
2023-02-27T06:11:45.461Z,95767.19
2023-02-27T06:14:13.900Z,95762.00
2023-02-27T06:16:41.541Z,95764.91
2023-02-27T06:19:10.849Z,95767.41
2023-02-27T06:21:38.420Z,95762.38
2023-02-27T06:24:06.328Z,95760.03
2023-02-27T06:26:33.913Z,95769.56
2023-02-27T06:29:01.718Z,95772.31
2023-02-27T06:31:29.304Z,95770.63
2023-02-27T06:33:57.169Z,95776.41
2023-02-27T06:36:26.359Z,95778.25
2023-02-27T06:38:54.380Z,95776.13
2023-02-27T06:41:22.090Z,95774.66
2023-02-27T06:43:49.677Z,95780.22
2023-02-27T06:46:17.527Z,95779.78
2023-02-27T06:48:45.553Z,95779.34
2023-02-27T06:51:13.207Z,95776.88
2023-02-27T06:53:43.186Z,95777.28
2023-02-27T06:56:10.727Z,95773.41
2023-02-27T06:58:38.695Z,95778.97
2023-02-27T07:01:06.400Z,95778.69
2023-02-27T07:03:33.971Z,95777.84
2023-02-27T07:06:02.371Z,95786.00
2023-02-27T07:08:30.425Z,95779.72
2023-02-27T07:10:59.738Z,95776.63
2023-02-27T07:13:27.327Z,95782.91
2023-02-27T07:15:54.989Z,95787.22
2023-02-27T07:18:22.604Z,95788.59
2023-02-27T07:20:51.533Z,95799.34
2023-02-27T07:23:19.327Z,95798.13
2023-02-27T07:25:48.528Z,95794.16
2023-02-27T07:28:19.224Z,95800.09
2023-02-27T07:30:47.601Z,95795.34
2023-02-27T07:33:15.671Z,95801.31
2023-02-27T07:35:43.600Z,95808.97
2023-02-27T07:38:11.163Z,95810.03
2023-02-27T07:40:39.115Z,95802.53
2023-02-27T07:43:06.678Z,95813.59
2023-02-27T07:45:35.934Z,95811.00
2023-02-27T07:48:03.498Z,95818.63
2023-02-27T07:50:31.673Z,95820.00
2023-02-27T07:52:59.235Z,95816.88
2023-02-27T07:55:27.378Z,95818.19
2023-02-27T07:57:55.603Z,95809.22
2023-02-27T08:00:23.296Z,95822.44
2023-02-27T08:02:52.218Z,95823.06
2023-02-27T08:05:20.038Z,95817.00
2023-02-27T08:07:47.604Z,95822.91
2023-02-27T08:10:16.668Z,95824.53
2023-02-27T08:12:44.754Z,95821.00
2023-02-27T08:15:13.039Z,95824.53
2023-02-27T08:17:41.057Z,95829.66
2023-02-27T08:20:12.660Z,95834.72
2023-02-27T08:22:40.720Z,95826.47
2023-02-27T08:25:11.149Z,95829.25
2023-02-27T08:27:39.678Z,95826.22
2023-02-27T08:30:11.623Z,95835.16
2023-02-27T08:32:39.687Z,95828.09
2023-02-27T08:35:08.123Z,95842.47
2023-02-27T08:37:37.121Z,95843.44
2023-02-27T08:40:06.860Z,95844.59
2023-02-27T08:42:35.029Z,95842.88
2023-02-27T08:45:03.019Z,95841.56
2023-02-27T08:47:30.616Z,95835.91
2023-02-27T08:49:58.557Z,95847.38
2023-02-27T08:52:26.167Z,95837.31
2023-02-27T08:54:55.392Z,95855.00
2023-02-27T08:57:22.996Z,95848.78
2023-02-27T08:59:50.881Z,95850.53
2023-02-27T09:02:18.654Z,95858.00
2023-02-27T09:04:46.586Z,95855.84
2023-02-27T09:07:14.157Z,95856.94
2023-02-27T09:09:42.466Z,95856.88
2023-02-27T09:12:11.430Z,95859.00
2023-02-27T09:14:40.291Z,95847.25
2023-02-27T09:17:08.057Z,95855.63
2023-02-27T09:19:36.451Z,95855.81
2023-02-27T09:22:04.046Z,95849.78
2023-02-27T09:24:31.926Z,95850.97
2023-02-27T09:26:59.570Z,95862.56
2023-02-27T09:29:29.136Z,95861.84
2023-02-27T09:31:57.076Z,95864.69
2023-02-27T09:34:24.713Z,95871.53
2023-02-27T09:36:52.401Z,95876.81
2023-02-27T09:39:20.166Z,95871.53
2023-02-27T09:41:56.667Z,95864.97
2023-02-27T09:44:45.750Z,95881.31
2023-02-27T09:47:19.594Z,95873.91
2023-02-27T09:49:56.297Z,95875.28
2023-02-27T09:52:24.022Z,95880.53
2023-02-27T09:54:52.035Z,95882.97
2023-02-27T09:57:32.217Z,95880.03
2023-02-27T10:00:07.109Z,95893.97
2023-02-27T10:02:55.383Z,95891.38
2023-02-27T10:05:32.575Z,95901.75
2023-02-27T10:08:06.666Z,95902.25
2023-02-27T10:10:41.417Z,95905.31
2023-02-27T10:13:27.347Z,95906.63
2023-02-27T10:15:58.703Z,95905.06
2023-02-27T10:18:31.014Z,95910.28
2023-02-27T10:21:01.565Z,95910.75
2023-02-27T10:23:36.586Z,95909.69
2023-02-27T10:26:05.880Z,95907.53
2023-02-27T10:28:34.226Z,95911.44
2023-02-27T10:31:04.212Z,95912.41
2023-02-27T10:33:36.447Z,95919.81
2023-02-27T10:36:12.460Z,95918.09
2023-02-27T10:38:46.652Z,95919.72
2023-02-27T10:41:18.446Z,95911.94
2023-02-27T10:43:46.354Z,95915.94
2023-02-27T10:46:18.034Z,95917.97
2023-02-27T10:48:46.228Z,95925.63
2023-02-27T10:51:26.738Z,95921.03
2023-02-27T10:54:15.591Z,95921.84
2023-02-27T10:56:47.947Z,95922.41
2023-02-27T10:59:20.445Z,95921.13
2023-02-27T11:01:53.002Z,95928.19
2023-02-27T11:04:29.315Z,95926.25
2023-02-27T11:06:57.492Z,95930.31
2023-02-27T11:09:28.202Z,95927.41
2023-02-27T11:12:10.739Z,95939.16
2023-02-27T11:14:50.522Z,95932.16
2023-02-27T11:17:29.452Z,95923.25
2023-02-27T11:19:57.874Z,95926.34
2023-02-27T11:22:28.575Z,95921.38
2023-02-27T11:25:19.010Z,95921.25
2023-02-27T11:27:48.163Z,95924.47
2023-02-27T11:30:26.919Z,95934.00
2023-02-27T11:32:58.723Z,95926.09
2023-02-27T11:35:29.499Z,95923.25
2023-02-27T11:38:00.238Z,95928.34
2023-02-27T11:40:32.539Z,95934.59
2023-02-27T11:43:05.050Z,95916.75
2023-02-27T11:46:04.640Z,95926.50
2023-02-27T11:48:29.343Z,95927.25
2023-02-27T11:51:26.069Z,95922.53
2023-02-27T11:54:08.231Z,95916.84
2023-02-27T11:56:39.145Z,95920.88
2023-02-27T11:59:18.395Z,95921.81
2023-02-27T12:01:51.864Z,95925.72
2023-02-27T12:04:25.890Z,95920.66
2023-02-27T12:06:58.670Z,95911.44
2023-02-27T12:09:37.059Z,95912.03
2023-02-27T12:12:10.318Z,95923.50
2023-02-27T12:14:45.248Z,95920.03
2023-02-27T12:17:21.460Z,95923.66
2023-02-27T12:19:59.564Z,95915.06
2023-02-27T12:22:31.522Z,95917.53
2023-02-27T12:25:05.646Z,95917.84
2023-02-27T12:27:43.781Z,95920.50
2023-02-27T12:30:18.785Z,95923.22
2023-02-27T12:32:50.529Z,95925.38
2023-02-27T12:35:24.392Z,95913.28
2023-02-27T12:37:52.903Z,95912.56
2023-02-27T12:40:26.848Z,95914.34
2023-02-27T12:43:22.141Z,95922.41
2023-02-27T12:46:00.809Z,95912.44
2023-02-27T12:48:45.072Z,95920.03
2023-02-27T12:51:28.573Z,95911.81
2023-02-27T12:54:11.870Z,95914.44
2023-02-27T12:56:50.849Z,95913.69
2023-02-27T12:59:30.174Z,95919.28
2023-02-27T13:02:06.273Z,95923.72
2023-02-27T13:04:42.852Z,95921.69
2023-02-27T13:07:22.445Z,95916.06
2023-02-27T13:09:53.332Z,95919.50
2023-02-27T13:12:30.160Z,95914.16
2023-02-27T13:15:04.397Z,95912.53
2023-02-27T13:17:39.190Z,95917.72
2023-02-27T13:20:20.881Z,95907.81
2023-02-27T13:22:58.504Z,95908.31
2023-02-27T13:25:27.091Z,95906.78
2023-02-27T13:27:58.598Z,95906.97
2023-02-27T13:30:30.426Z,95898.19
2023-02-27T13:33:07.031Z,95899.94
2023-02-27T13:35:50.167Z,95902.91
2023-02-27T13:38:43.676Z,95894.94
2023-02-27T13:41:39.208Z,95899.94
2023-02-27T13:44:38.671Z,95901.41
2023-02-27T13:47:45.859Z,95900.28
2023-02-27T13:50:51.763Z,95895.00
2023-02-27T13:53:21.496Z,95903.03
2023-02-27T13:55:53.727Z,95903.41
2023-02-27T13:58:25.515Z,95909.81
2023-02-27T14:00:59.857Z,95903.66
2023-02-27T14:03:30.081Z,95907.47
2023-02-27T14:06:03.233Z,95902.34
2023-02-27T14:08:35.329Z,95908.88
2023-02-27T14:11:16.886Z,95906.78
2023-02-27T14:14:04.911Z,95907.22
2023-02-27T14:17:03.427Z,95908.03
2023-02-27T14:19:51.350Z,95916.72
2023-02-27T14:23:10.226Z,95909.63
2023-02-27T14:25:41.297Z,95900.56
2023-02-27T14:28:22.521Z,95907.28
2023-02-27T14:30:57.721Z,95907.56
2023-02-27T14:33:39.617Z,95916.72
2023-02-27T14:36:16.174Z,95910.25
2023-02-27T14:38:44.060Z,95915.00
2023-02-27T14:41:32.900Z,95910.72
2023-02-27T14:44:02.163Z,95919.72
2023-02-27T14:46:39.653Z,95917.22
2023-02-27T14:49:24.977Z,95912.38
2023-02-27T14:51:54.902Z,95914.75
2023-02-27T14:54:26.674Z,95911.22
2023-02-27T14:56:58.235Z,95907.66
2023-02-27T14:59:31.347Z,95907.91
2023-02-27T15:02:04.378Z,95911.22
2023-02-27T15:04:35.901Z,95911.09
2023-02-27T15:07:05.219Z,95924.69
2023-02-27T15:09:40.824Z,95916.19
2023-02-27T15:12:10.737Z,95925.38
2023-02-27T15:14:42.074Z,95928.00
2023-02-27T15:17:17.897Z,95922.31
2023-02-27T15:19:50.667Z,95915.25
2023-02-27T15:22:36.212Z,95920.44
2023-02-27T15:25:07.856Z,95935.69
2023-02-27T15:27:38.048Z,95934.03
2023-02-27T15:30:09.610Z,95926.69
2023-02-27T15:32:40.700Z,95928.34
2023-02-27T15:35:16.736Z,95932.59
2023-02-27T15:37:49.721Z,95933.19
2023-02-27T15:40:21.739Z,95930.59
2023-02-27T15:42:49.994Z,95933.16
2023-02-27T15:45:22.660Z,95945.34
2023-02-27T15:47:50.286Z,95941.06
2023-02-27T15:50:27.279Z,95950.66
2023-02-27T15:52:59.930Z,95953.00
2023-02-27T15:55:30.426Z,95954.22
2023-02-27T15:58:11.144Z,95959.28
2023-02-27T16:00:40.532Z,95955.84
2023-02-27T16:03:09.999Z,95965.09
2023-02-27T16:05:42.871Z,95966.16
2023-02-27T16:08:18.939Z,95962.25
2023-02-27T16:10:48.388Z,95968.13
2023-02-27T16:13:30.456Z,95970.53
2023-02-27T16:16:02.841Z,95971.81
2023-02-27T16:18:34.769Z,95980.53
2023-02-27T16:21:14.090Z,95983.72
2023-02-27T16:23:42.509Z,95983.72
2023-02-27T16:26:28.252Z,95984.81
2023-02-27T16:28:59.759Z,95989.03
2023-02-27T16:31:32.386Z,95991.50
2023-02-27T16:34:01.917Z,95999.56
2023-02-27T16:36:32.127Z,95989.13
2023-02-27T16:38:59.978Z,95992.41
2023-02-27T16:41:28.366Z,95999.63
2023-02-27T16:43:56.316Z,95997.25
2023-02-27T16:46:24.637Z,96006.53
2023-02-27T16:48:55.728Z,96014.53
2023-02-27T16:51:25.412Z,96015.44
2023-02-27T16:53:54.849Z,96028.53
2023-02-27T16:56:37.031Z,96018.31
2023-02-27T16:59:06.967Z,96024.44
2023-02-27T17:01:34.980Z,96026.25
2023-02-27T17:04:08.686Z,96028.41
2023-02-27T17:06:41.548Z,96033.28
2023-02-27T17:09:10.788Z,96032.66
2023-02-27T17:11:38.464Z,96036.78
2023-02-27T17:14:06.404Z,96037.97
2023-02-27T17:16:34.019Z,96043.47
2023-02-27T17:19:01.626Z,96040.31
2023-02-27T17:21:30.933Z,96043.41
2023-02-27T17:23:58.568Z,96052.56
2023-02-27T17:26:27.480Z,96052.78
2023-02-27T17:28:56.419Z,96057.06
2023-02-27T17:31:24.426Z,96052.66
2023-02-27T17:33:53.654Z,96065.19
2023-02-27T17:36:24.674Z,96060.47
2023-02-27T17:38:57.303Z,96070.19
2023-02-27T17:41:25.582Z,96065.38
2023-02-27T17:43:55.297Z,96065.75
2023-02-27T17:46:24.229Z,96075.56
2023-02-27T17:48:52.041Z,96064.69
2023-02-27T17:51:20.239Z,96071.97
2023-02-27T17:53:48.595Z,96073.03
2023-02-27T17:56:17.649Z,96087.69
2023-02-27T17:58:45.672Z,96081.50
2023-02-27T18:01:16.973Z,96077.44
2023-02-27T18:03:45.280Z,96078.25
2023-02-27T18:06:13.196Z,96076.88
2023-02-27T18:08:40.795Z,96078.03
2023-02-27T18:11:10.803Z,96080.94
2023-02-27T18:13:41.098Z,96087.72
2023-02-27T18:16:09.100Z,96088.53
2023-02-27T18:18:37.743Z,96087.63
2023-02-27T18:21:09.113Z,96093.84
2023-02-27T18:23:37.216Z,96088.47
2023-02-27T18:26:05.566Z,96099.38
2023-02-27T18:28:33.263Z,96097.72
2023-02-27T18:31:02.183Z,96105.41
2023-02-27T18:33:29.774Z,96100.03
2023-02-27T18:35:57.419Z,96093.97
2023-02-27T18:38:25.045Z,96094.44
2023-02-27T18:40:52.616Z,96097.72
2023-02-27T18:43:20.322Z,96101.06
2023-02-27T18:45:48.093Z,96093.66
2023-02-27T18:48:17.183Z,96101.03
2023-02-27T18:50:44.826Z,96094.44
2023-02-27T18:53:12.875Z,96097.44
2023-02-27T18:55:40.727Z,96103.75
2023-02-27T18:58:08.846Z,96103.84
2023-02-27T19:00:36.530Z,96098.56
2023-02-27T19:03:06.987Z,96111.84
2023-02-27T19:05:41.084Z,96107.28
2023-02-27T19:08:08.933Z,96112.53
2023-02-27T19:10:39.139Z,96111.84
2023-02-27T19:13:07.307Z,96107.34
2023-02-27T19:15:34.894Z,96109.41
2023-02-27T19:18:02.774Z,96109.56
2023-02-27T19:20:30.340Z,96107.34
2023-02-27T19:22:59.561Z,96109.00
2023-02-27T19:25:27.217Z,96112.34
2023-02-27T19:27:56.696Z,96107.00
2023-02-27T19:30:25.958Z,96113.16
2023-02-27T19:32:54.056Z,96105.00
2023-02-27T19:35:22.647Z,96112.97
2023-02-27T19:37:56.884Z,96113.34
2023-02-27T19:40:28.155Z,96113.34
2023-02-27T19:42:56.112Z,96108.09
2023-02-27T19:45:24.138Z,96102.25
2023-02-27T19:47:51.761Z,96102.31
2023-02-27T19:50:19.402Z,96105.91
2023-02-27T19:52:46.971Z,96096.78
2023-02-27T19:55:14.914Z,96111.50
2023-02-27T19:57:43.818Z,96105.00
2023-02-27T20:00:14.007Z,96112.53
2023-02-27T20:02:41.916Z,96118.47
2023-02-27T20:05:12.061Z,96112.97
2023-02-27T20:07:40.472Z,96115.25
2023-02-27T20:10:08.455Z,96110.91
2023-02-27T20:12:36.048Z,96106.53
2023-02-27T20:15:09.826Z,96108.72
2023-02-27T20:17:37.961Z,96114.25
2023-02-27T20:20:07.609Z,96105.31
2023-02-27T20:22:35.277Z,96120.44
2023-02-27T20:25:03.596Z,96114.66
2023-02-27T20:27:31.176Z,96117.56
2023-02-27T20:29:59.320Z,96106.56
2023-02-27T20:32:29.056Z,96117.78
2023-02-27T20:34:57.305Z,96101.59
2023-02-27T20:37:24.909Z,96101.78
2023-02-27T20:39:53.093Z,96109.06
2023-02-27T20:42:20.970Z,96100.97
2023-02-27T20:44:50.521Z,96096.41
2023-02-27T20:47:18.404Z,96103.25
2023-02-27T20:49:47.751Z,96097.84
2023-02-27T20:52:15.617Z,96097.84
2023-02-27T20:54:43.595Z,96089.56
2023-02-27T20:57:11.450Z,96091.94
2023-02-27T20:59:39.218Z,96085.81
2023-02-27T21:02:08.523Z,96091.44
2023-02-27T21:04:43.769Z,96090.63
2023-02-27T21:07:15.092Z,96096.72
2023-02-27T21:09:43.217Z,96095.06
2023-02-27T21:12:11.752Z,96095.16
2023-02-27T21:14:39.424Z,96093.50
2023-02-27T21:17:07.380Z,96092.03
2023-02-27T21:19:35.341Z,96094.97
2023-02-27T21:22:02.913Z,96088.72
2023-02-27T21:24:32.768Z,96094.63
2023-02-27T21:27:00.674Z,96086.88
2023-02-27T21:29:28.791Z,96098.38
2023-02-27T21:31:56.362Z,96092.03
2023-02-27T21:34:26.874Z,96086.34
2023-02-27T21:36:54.933Z,96087.09
2023-02-27T21:39:24.357Z,96085.22
2023-02-27T21:41:53.950Z,96082.31
2023-02-27T21:44:25.551Z,96079.19
2023-02-27T21:46:54.095Z,96080.16
2023-02-27T21:49:23.511Z,96084.16
2023-02-27T21:51:51.484Z,96073.41
2023-02-27T21:54:19.944Z,96061.50
2023-02-27T21:56:49.762Z,96064.06
2023-02-27T21:59:21.579Z,96070.81
2023-02-27T22:01:49.846Z,96065.94
2023-02-27T22:04:18.659Z,96069.06
2023-02-27T22:06:47.784Z,96062.19
2023-02-27T22:09:15.892Z,96062.19
2023-02-27T22:11:44.159Z,96053.00
2023-02-27T22:14:13.324Z,96059.19
2023-02-27T22:16:42.335Z,96068.00
2023-02-27T22:19:11.948Z,96053.81
2023-02-27T22:21:40.431Z,96056.72
2023-02-27T22:24:08.522Z,96060.03
2023-02-27T22:26:36.628Z,96058.69
2023-02-27T22:29:05.638Z,96055.19
2023-02-27T22:31:38.768Z,96051.84
2023-02-27T22:34:11.974Z,96050.19
2023-02-27T22:36:41.941Z,96051.22
2023-02-27T22:39:09.533Z,96046.47
2023-02-27T22:41:40.094Z,96041.59
2023-02-27T22:44:09.456Z,96037.66
2023-02-27T22:46:39.390Z,96035.47
2023-02-27T22:49:11.244Z,96037.44
2023-02-27T22:51:39.340Z,96030.09
2023-02-27T22:54:07.622Z,96023.06
2023-02-27T22:56:36.936Z,96023.25
2023-02-27T22:59:23.194Z,96020.47
2023-02-27T23:01:51.675Z,96016.41
2023-02-27T23:04:22.098Z,96014.44
2023-02-27T23:06:52.474Z,96011.84
2023-02-27T23:09:22.892Z,96004.91
2023-02-27T23:11:52.174Z,96007.47
2023-02-27T23:14:21.072Z,96010.06
2023-02-27T23:16:49.196Z,96004.81
2023-02-27T23:19:21.249Z,96011.84
2023-02-27T23:21:49.473Z,96011.94
2023-02-27T23:24:19.272Z,96014.13
2023-02-27T23:26:49.321Z,96018.78
2023-02-27T23:29:18.410Z,96011.19
2023-02-27T23:31:46.488Z,96005.91
2023-02-27T23:34:14.213Z,96011.38
2023-02-27T23:36:43.788Z,96009.75
2023-02-27T23:39:11.360Z,96008.09
2023-02-27T23:41:39.559Z,96009.75
2023-02-27T23:44:07.133Z,95998.34
2023-02-27T23:46:35.091Z,96001.78
2023-02-27T23:49:03.201Z,96004.75
2023-02-27T23:51:33.090Z,95996.66
2023-02-27T23:54:02.609Z,96000.19
2023-02-27T23:56:31.423Z,95998.66
2023-02-27T23:59:01.441Z,95997.25
